الصفحة الرئيسية
METAR-TAF:

METAR-TAF

مطار :

Rankin Inlet, نونافوت, كندا

دائرة عرض: 62-49N, خط طول: 092-07W, ارتفاع: 31 متر

مراقبة الطقس الحالي

تاريخ ووقت الإصدار 26 دقيقة قبل الساعة 16:00UTC
ريح 9 عقدة من الشمال/الشمال الغربي, الاتجاه يتراوح بين الغرب/الشمال الغربي و الشمال
درجة الحرارة 10°درجة مئوية
الرطوبة 57%
ضغط 1010 hPa
الرؤية: 24.1 كم
غيوم متفرقة على ارتفاع 3800 قدم
غيوم متفرقة على ارتفاع 25000 قدم

METAR: CYRT 151600Z 33009KT 300V010 15SM SCT038 SCT250 10/02 A2983 RMK CU3CI1 SLP106

زمن: 11:26 (16:26 UTC)

توقعات

تاريخ ووقت الإصدار 4ساعات و 46 دقيقة قبل الساعة 11:40UTC
التوقعات صالحة من15 الساعة 12 UTC إلى 15 الساعة 24 UTC
ريح 3 عقدةمن اتجاهات متغيرة
الرؤية: 10 كم
غيوم قليلة على ارتفاع 23000 قدم
أصبح
من 15 الساعة 13 UTC إلى 15 الساعة 15 UTC
ريح 8 عقدة من الشمال الغربي

TAF: CYRT 151140Z 1512/1524 VRB03KT P6SM FEW230 BECMG 1513/1515 31008KT RMK NXT FCST BY 151800Z

أرصاد الطقس والتوقعات من أكثر من 4000 مطار (تقارير الطقس للمطار METAR والتنبؤ بالطقس بالمطارTAF).

المحطات المتاحة هي النقط الصفراء والحمراء على الخريطة.

حرك المؤشر فوق النقطة لمعرفة اسم المحطة.

ثم انقر لمعرفة أرصاد وتوقعات الطقس.

لتغيير الخارطة: اضغط على الأزرار الخضراء مع رمز الصليب الأسود للتكبير. على الزر الأخضر مع شرطة للتصغير، أو على الأسهم الخضراء للخرائط المجاورة.


METAR-TAF: